Time;durP1;ratioP1;P1;durP2;ratioP2;P2;SDS_P1;SDS_P2;PMS_P1;PMS_P2;Temp;Humidity;BMP_temperature;BMP_pressure;BME280_temperature;BME280_humidity;BME280_pressure;Samples;Min_cycle;Max_cycle;Signal;HPM_P1;HPM_P2
2022/12/28 00:01:16;;;;;;;;;;;;;;;4.16;100.00;101236.34;5061309;28;19924;-75
2022/12/28 00:03:41;;;;;;;;;;;;;;;4.16;100.00;101230.22;5062143;28;19924;-75
2022/12/28 00:06:07;;;;;;;;;;;;;;;4.16;100.00;101223.25;5058983;28;19931;-74
2022/12/28 00:08:32;;;;;;;;;;;;;;;4.14;100.00;101209.28;5059796;28;21763;-74
2022/12/28 00:10:59;;;;;;;;;;;;;;;4.14;100.00;101204.03;5060428;28;19929;-74
2022/12/28 00:13:24;;;;;;;;;;;;;;;4.15;100.00;101205.75;5044827;28;19936;-74
2022/12/28 00:15:50;;;;;;;;;;;;;;;4.14;100.00;101188.31;5044111;28;19971;-75
2022/12/28 00:18:15;;;;;;;;;;;;;;;4.13;100.00;101180.50;5042688;28;19932;-75
2022/12/28 00:20:40;;;;;;;;;;;;;;;4.12;100.00;101181.34;5063367;28;19932;-75
2022/12/28 00:23:06;;;;;;;;;;;;;;;4.11;100.00;101172.66;5058097;28;20391;-75
2022/12/28 00:25:34;;;;;;;;;;;;;;;4.10;100.00;101155.19;5063414;28;19934;-75
2022/12/28 00:27:59;;;;;;;;;;;;;;;4.11;100.00;101161.28;5042646;28;20386;-75
2022/12/28 00:30:24;;;;;;;;;;;;;;;4.10;100.00;101160.44;5043586;28;19936;-75
2022/12/28 00:32:50;;;;;;;;;;;;;;;4.10;100.00;101149.06;5066549;28;20034;-75
2022/12/28 00:35:15;;;;;;;;;;;;;;;4.10;100.00;101139.47;5065853;28;19929;-75
2022/12/28 00:37:40;;;;;;;;;;;;;;;4.11;100.00;101135.97;5064114;28;20102;-75
2022/12/28 00:40:06;;;;;;;;;;;;;;;4.12;100.00;101132.44;5064301;28;19923;-75
2022/12/28 00:42:32;;;;;;;;;;;;;;;4.12;100.00;101111.47;5065257;28;21649;-74
2022/12/28 00:44:57;;;;;;;;;;;;;;;4.13;100.00;101100.09;5067260;28;19932;-75
2022/12/28 00:47:23;;;;;;;;;;;;;;;4.14;100.00;101104.44;5062841;28;21522;-75
2022/12/28 00:49:48;;;;;;;;;;;;;;;4.16;100.00;101094.84;5066236;28;19959;-75
2022/12/28 00:52:13;;;;;;;;;;;;;;;4.16;100.00;101088.72;5065037;28;19932;-75
2022/12/28 00:54:39;;;;;;;;;;;;;;;4.17;100.00;101088.69;5065716;28;19928;-74
2022/12/28 00:57:04;;;;;;;;;;;;;;;4.18;100.00;101074.69;5063463;28;20058;-75
2022/12/28 00:59:30;;;;;;;;;;;;;;;4.19;100.00;101065.94;5063309;28;21504;-75
2022/12/28 01:01:55;;;;;;;;;;;;;;;4.20;100.00;101057.19;5065271;28;19939;-74
2022/12/28 01:04:20;;;;;;;;;;;;;;;4.21;100.00;101058.06;5066779;28;19943;-75
2022/12/28 01:06:46;;;;;;;;;;;;;;;4.21;100.00;101048.44;5064644;28;19943;-75
2022/12/28 01:09:12;;;;;;;;;;;;;;;4.23;100.00;101044.94;5065140;28;20284;-75
2022/12/28 01:11:37;;;;;;;;;;;;;;;4.21;100.00;101024.84;5065938;28;19932;-75
2022/12/28 01:14:02;;;;;;;;;;;;;;;4.23;100.00;101034.47;5062358;28;21216;-75
2022/12/28 01:16:32;;;;;;;;;;;;;;;4.21;100.00;101032.69;5063091;28;20214;-75
2022/12/28 01:18:58;;;;;;;;;;;;;;;4.21;100.00;101030.09;5063973;28;19932;-75
2022/12/28 01:21:25;;;;;;;;;;;;;;;4.20;100.00;101035.38;5065005;28;19924;-76
2022/12/28 01:23:52;;;;;;;;;;;;;;;4.20;100.00;101028.34;5062655;28;20163;-75
2022/12/28 01:26:18;;;;;;;;;;;;;;;4.21;100.00;101011.72;5062612;28;20018;-75
2022/12/28 01:28:43;;;;;;;;;;;;;;;4.23;100.00;101013.50;5061780;28;19924;-75
2022/12/28 01:31:12;;;;;;;;;;;;;;;4.21;100.00;101006.50;5063329;28;19943;-75
2022/12/28 01:33:37;;;;;;;;;;;;;;;4.21;100.00;100992.53;5046411;28;20126;-75
2022/12/28 01:36:06;;;;;;;;;;;;;;;4.21;100.00;100993.38;5044797;28;20394;-75
2022/12/28 01:38:31;;;;;;;;;;;;;;;4.21;100.00;100988.16;5064823;28;19928;-74
2022/12/28 01:40:57;;;;;;;;;;;;;;;4.22;100.00;100986.41;5063576;28;19941;-75
2022/12/28 01:43:41;;;;;;;;;;;;;;;4.21;100.00;100975.03;5064246;28;20465;-75
2022/12/28 01:46:07;;;;;;;;;;;;;;;4.23;100.00;100974.19;5045990;28;19935;-75
2022/12/28 01:48:32;;;;;;;;;;;;;;;4.23;100.00;100971.56;5045761;28;19934;-74
2022/12/28 01:50:58;;;;;;;;;;;;;;;4.25;100.00;100975.00;5063724;28;20390;-74
2022/12/28 01:53:23;;;;;;;;;;;;;;;4.25;100.00;100970.63;5047484;28;19935;-74
2022/12/28 01:55:48;;;;;;;;;;;;;;;4.27;100.00;100962.72;5063628;28;20521;-75
2022/12/28 01:58:16;;;;;;;;;;;;;;;4.29;100.00;100950.44;5061748;28;19929;-74
2022/12/28 02:00:41;;;;;;;;;;;;;;;4.31;100.00;100959.19;5064822;28;20484;-74
2022/12/28 02:03:10;;;;;;;;;;;;;;;4.33;100.00;100944.28;5083351;28;19943;-74
2022/12/28 02:05:40;;;;;;;;;;;;;;;4.34;100.00;100940.75;5067681;28;19927;-75
2022/12/28 02:08:10;;;;;;;;;;;;;;;4.36;100.00;100938.97;5038473;28;20938;-75
2022/12/28 02:10:36;;;;;;;;;;;;;;;4.38;100.00;100918.84;5064839;28;20141;-75
2022/12/28 02:13:02;;;;;;;;;;;;;;;4.41;100.00;100925.81;5084396;28;20620;-75
2022/12/28 02:15:27;;;;;;;;;;;;;;;4.43;100.00;100922.25;5050273;28;19943;-75
2022/12/28 02:17:52;;;;;;;;;;;;;;;4.47;100.00;100908.19;5035373;28;20562;-75
2022/12/28 02:20:18;;;;;;;;;;;;;;;4.50;100.00;100912.50;5067388;28;19935;-75
2022/12/28 02:22:43;;;;;;;;;;;;;;;4.53;100.00;100915.06;5063217;28;20069;-75
2022/12/28 02:25:33;;;;;;;;;;;;;;;4.56;100.00;100911.50;5082440;28;20012;-75
2022/12/28 02:27:59;;;;;;;;;;;;;;;4.59;100.00;100903.59;5058854;28;19926;-75
2022/12/28 02:30:25;;;;;;;;;;;;;;;4.61;100.00;100893.94;5064105;28;20385;-75
2022/12/28 02:33:09;;;;;;;;;;;;;;;4.62;100.00;100890.41;5051029;28;19928;-75
2022/12/28 02:35:40;;;;;;;;;;;;;;;4.62;100.00;100886.06;5083238;28;19955;-76
2022/12/28 02:38:17;;;;;;;;;;;;;;;4.64;100.00;100883.41;5064883;28;20559;-76
2022/12/28 02:40:51;;;;;;;;;;;;;;;4.67;100.00;100880.72;5083540;28;20398;-75
2022/12/28 02:43:16;;;;;;;;;;;;;;;4.68;100.00;100874.56;5064464;28;20363;-75
2022/12/28 02:51:19;;;;;;;;;;;;;;;4.75;100.00;100859.59;5083231;28;20028;-76
2022/12/28 02:53:51;;;;;;;;;;;;;;;4.76;100.00;100862.16;5081648;28;20429;-76
2022/12/28 02:56:23;;;;;;;;;;;;;;;4.79;100.00;100849.88;5083865;28;20310;-74
2022/12/28 02:59:08;;;;;;;;;;;;;;;4.78;100.00;100850.78;5055814;28;19928;-76
2022/12/28 03:01:39;;;;;;;;;;;;;;;4.80;100.00;100839.34;5043455;28;19924;-75
2022/12/28 03:04:24;;;;;;;;;;;;;;;4.81;100.00;100838.47;5079446;28;19924;-76
2022/12/28 03:09:54;;;;;;;;;;;;;;;4.86;100.00;100838.38;5078621;28;19989;-75
2022/12/28 03:12:31;;;;;;;;;;;;;;;4.87;100.00;100832.22;5073411;28;20144;-75
2022/12/28 03:15:07;;;;;;;;;;;;;;;4.87;100.00;100837.47;5059484;28;20709;-76
2022/12/28 03:31:19;;;;;;;;;;;;;;;4.88;100.00;100811.19;5060228;28;19924;-75
2022/12/28 03:33:45;;;;;;;;;;;;;;;4.89;100.00;100802.44;5060828;28;19928;-76
2022/12/28 03:36:11;;;;;;;;;;;;;;;4.89;100.00;100807.69;5044719;28;20465;-75
2022/12/28 03:38:55;;;;;;;;;;;;;;;4.89;100.00;100804.19;5077566;28;19928;-74
2022/12/28 03:41:37;;;;;;;;;;;;;;;4.89;100.00;100783.19;5075979;28;19920;-76
2022/12/28 03:44:04;;;;;;;;;;;;;;;4.90;100.00;100784.91;5059583;28;19929;-75
2022/12/28 03:46:32;;;;;;;;;;;;;;;4.91;100.00;100791.03;5059076;28;19954;-75
2022/12/28 03:48:58;;;;;;;;;;;;;;;4.90;100.00;100779.66;5065722;28;19920;-74
2022/12/28 03:51:23;;;;;;;;;;;;;;;4.90;100.00;100771.78;5059502;28;19924;-75
2022/12/28 03:53:49;;;;;;;;;;;;;;;4.91;100.00;100776.16;5059044;28;19932;-76
2022/12/28 03:56:22;;;;;;;;;;;;;;;4.92;100.00;100762.13;5059708;28;20443;-76
2022/12/28 03:58:47;;;;;;;;;;;;;;;4.93;100.00;100760.38;5072280;28;21608;-76
2022/12/28 04:01:13;;;;;;;;;;;;;;;4.94;100.00;100764.72;5057039;28;19935;-76
2022/12/28 04:03:38;;;;;;;;;;;;;;;4.94;100.00;100754.22;5059253;28;19935;-76
2022/12/28 04:06:04;;;;;;;;;;;;;;;4.94;100.00;100752.47;5064912;28;19955;-76
2022/12/28 04:08:30;;;;;;;;;;;;;;;4.95;100.00;100754.19;5065702;28;20016;-76
2022/12/28 04:10:57;;;;;;;;;;;;;;;4.95;100.00;100746.31;5068241;28;19932;-76
2022/12/28 04:13:22;;;;;;;;;;;;;;;4.95;100.00;100748.94;5085183;28;20336;-76
2022/12/28 04:15:55;;;;;;;;;;;;;;;4.96;100.00;100744.56;5067804;28;19939;-76
2022/12/28 04:18:20;;;;;;;;;;;;;;;4.96;100.00;100748.03;5064796;28;20093;-76
2022/12/28 04:20:46;;;;;;;;;;;;;;;4.96;100.00;100740.16;5067600;28;19931;-76
2022/12/28 04:23:11;;;;;;;;;;;;;;;4.97;100.00;100734.00;5087594;28;19924;-76
2022/12/28 04:25:36;;;;;;;;;;;;;;;4.97;100.00;100723.50;5087065;28;19967;-76
2022/12/28 04:28:02;;;;;;;;;;;;;;;4.97;100.00;100726.13;5085952;28;19924;-77
2022/12/28 04:30:27;;;;;;;;;;;;;;;4.98;100.00;100725.25;5084682;28;20401;-77
2022/12/28 04:32:53;;;;;;;;;;;;;;;5.00;100.00;100733.94;5083868;28;19943;-76
2022/12/28 04:35:19;;;;;;;;;;;;;;;5.01;100.00;100730.44;5086827;28;19928;-76
2022/12/28 04:37:44;;;;;;;;;;;;;;;5.02;100.00;100712.94;5087032;28;19935;-76
2022/12/28 04:40:10;;;;;;;;;;;;;;;5.02;100.00;100716.41;5083161;28;21097;-76
2022/12/28 04:42:35;;;;;;;;;;;;;;;5.03;100.00;100710.25;5083346;28;19962;-76
2022/12/28 04:45:00;;;;;;;;;;;;;;;5.04;100.00;100711.13;5067069;28;20435;-76
2022/12/28 04:47:27;;;;;;;;;;;;;;;5.06;100.00;100729.47;5085341;28;19927;-77
2022/12/28 04:49:52;;;;;;;;;;;;;;;5.06;100.00;100719.81;5068116;28;20006;-76
2022/12/28 04:52:17;;;;;;;;;;;;;;;5.07;100.00;100718.06;5084513;28;19924;-76
2022/12/28 04:54:43;;;;;;;;;;;;;;;5.09;100.00;100718.88;5084312;28;20395;-76
2022/12/28 04:57:08;;;;;;;;;;;;;;;5.09;100.00;100721.50;5086560;28;20011;-76
2022/12/28 04:59:34;;;;;;;;;;;;;;;5.08;100.00;100709.28;5083970;28;19928;-76
2022/12/28 05:01:59;;;;;;;;;;;;;;;5.08;100.00;100718.03;5084869;28;19928;-76
2022/12/28 05:04:25;;;;;;;;;;;;;;;5.09;100.00;100717.13;5083518;28;19963;-76
2022/12/28 05:06:50;;;;;;;;;;;;;;;5.10;100.00;100717.97;5086967;28;19924;-76
2022/12/28 05:09:18;;;;;;;;;;;;;;;5.10;100.00;100713.59;5085075;28;19928;-76
2022/12/28 05:11:43;;;;;;;;;;;;;;;5.11;100.00;100707.44;5083984;28;20015;-76
2022/12/28 05:14:08;;;;;;;;;;;;;;;5.12;100.00;100721.44;5084228;28;19934;-76
2022/12/28 05:16:34;;;;;;;;;;;;;;;5.13;100.00;100716.13;5086773;28;19928;-76
2022/12/28 05:18:59;;;;;;;;;;;;;;;5.13;100.00;100721.38;5063997;28;19923;-76
2022/12/28 05:21:25;;;;;;;;;;;;;;;5.15;100.00;100721.34;5067805;28;19993;-76
2022/12/28 05:23:51;;;;;;;;;;;;;;;5.18;100.00;100715.16;5066413;28;20294;-76
2022/12/28 05:26:17;;;;;;;;;;;;;;;5.19;100.00;100707.28;5066834;28;19924;-76
2022/12/28 05:28:42;;;;;;;;;;;;;;;5.20;100.00;100709.00;5068739;28;19956;-76
2022/12/28 05:31:12;;;;;;;;;;;;;;;5.23;100.00;100708.06;5068386;28;20011;-76
2022/12/28 05:33:38;;;;;;;;;;;;;;;5.25;100.00;100707.13;5082262;28;19928;-76
2022/12/28 05:36:07;;;;;;;;;;;;;;;5.28;100.00;100717.53;5084156;28;19974;-76
2022/12/28 05:38:32;;;;;;;;;;;;;;;5.32;100.00;100717.47;5066813;28;19944;-76
2022/12/28 05:41:04;;;;;;;;;;;;;;;5.33;100.00;100703.44;5084447;28;19962;-77
2022/12/28 05:43:29;;;;;;;;;;;;;;;5.37;100.00;100707.69;5085016;28;20018;-76
2022/12/28 05:45:59;;;;;;;;;;;;;;;5.40;100.00;100705.00;5064869;28;20373;-76
2022/12/28 05:48:24;;;;;;;;;;;;;;;5.43;100.00;100711.03;5083944;28;19928;-76
2022/12/28 05:50:49;;;;;;;;;;;;;;;5.48;100.00;100715.28;5067138;28;20534;-76
2022/12/28 05:53:15;;;;;;;;;;;;;;;5.50;100.00;100709.09;5083962;28;19924;-76
2022/12/28 05:55:40;;;;;;;;;;;;;;;5.54;100.00;100700.22;5049209;28;19975;-76
2022/12/28 05:58:07;;;;;;;;;;;;;;;5.60;100.00;100700.97;5085707;28;19971;-76
2022/12/28 06:00:32;;;;;;;;;;;;;;;5.66;100.00;100700.81;5067773;28;19927;-76
2022/12/28 06:02:58;;;;;;;;;;;;;;;5.73;100.00;100701.50;5083427;28;19931;-77
2022/12/28 06:05:23;;;;;;;;;;;;;;;5.81;100.00;100702.13;5062252;28;19935;-76
2022/12/28 06:07:50;;;;;;;;;;;;;;;5.88;100.00;100694.97;5085034;28;19931;-77
2022/12/28 06:10:15;;;;;;;;;;;;;;;5.94;100.00;100685.13;5084694;28;20302;-77
2022/12/28 06:12:41;;;;;;;;;;;;;;;5.99;100.00;100687.59;5041795;28;19928;-77
2022/12/28 06:15:07;;;;;;;;;;;;;;;6.10;100.00;100685.56;5082712;28;20294;-76
2022/12/28 06:17:32;;;;;;;;;;;;;;;6.18;100.00;100688.00;5085571;28;20489;-77
2022/12/28 06:19:57;;;;;;;;;;;;;;;6.23;100.00;100693.09;5070170;28;19987;-77
2022/12/28 06:22:23;;;;;;;;;;;;;;;6.26;100.00;100695.63;5049991;28;20014;-77
2022/12/28 06:24:48;;;;;;;;;;;;;;;6.28;100.00;100691.22;5082952;28;19932;-77
2022/12/28 06:27:14;;;;;;;;;;;;;;;6.28;100.00;100691.22;5084884;28;19931;-76
2022/12/28 06:29:39;;;;;;;;;;;;;;;6.26;100.00;100690.38;5084900;28;20382;-77
2022/12/28 06:32:04;;;;;;;;;;;;;;;6.21;100.00;100685.25;5084379;28;20401;-77
2022/12/28 06:34:29;;;;;;;;;;;;;;;6.18;100.00;100681.84;5082160;28;20064;-77
2022/12/28 06:36:56;;;;;;;;;;;;;;;6.15;100.00;100677.53;5085415;28;19928;-77
2022/12/28 06:39:22;;;;;;;;;;;;;;;6.12;100.00;100688.16;5085251;28;20465;-77
2022/12/28 06:41:47;;;;;;;;;;;;;;;6.11;100.00;100679.41;5053607;28;19939;-77
2022/12/28 06:44:13;;;;;;;;;;;;;;;6.10;100.00;100677.69;5062837;28;19928;-77
2022/12/28 06:46:38;;;;;;;;;;;;;;;6.08;100.00;100676.88;5054657;28;20544;-76
2022/12/28 06:49:04;;;;;;;;;;;;;;;6.08;100.00;100676.00;5064438;28;19939;-77
2022/12/28 06:51:39;;;;;;;;;;;;;;;6.07;100.00;100683.06;5053749;28;19971;-76
2022/12/28 06:54:05;;;;;;;;;;;;;;;6.06;100.00;100686.56;5063815;28;20619;-75
2022/12/28 06:56:31;;;;;;;;;;;;;;;6.04;100.00;100683.13;5065651;28;19935;-77
2022/12/28 06:58:57;;;;;;;;;;;;;;;6.03;100.00;100684.03;5066686;28;19923;-77
2022/12/28 07:01:23;;;;;;;;;;;;;;;6.02;100.00;100679.69;5081095;28;19931;-77
2022/12/28 07:03:49;;;;;;;;;;;;;;;6.02;100.00;100686.66;5066816;28;20138;-77
2022/12/28 07:06:15;;;;;;;;;;;;;;;6.02;100.00;100678.78;5073303;28;20117;-77
2022/12/28 07:08:41;;;;;;;;;;;;;;;6.04;100.00;100677.88;5061605;28;20348;-77
2022/12/28 07:11:08;;;;;;;;;;;;;;;6.07;100.00;100679.53;5062088;28;19930;-77
2022/12/28 07:13:33;;;;;;;;;;;;;;;6.15;100.00;100679.34;5037527;28;19946;-78
2022/12/28 07:16:06;;;;;;;;;;;;;;;6.25;100.00;100683.41;5059198;28;19928;-77
2022/12/28 07:18:31;;;;;;;;;;;;;;;6.40;100.00;100692.59;5075296;28;19928;-77
2022/12/28 07:20:58;;;;;;;;;;;;;;;6.48;100.00;100690.59;5074933;28;19950;-77
2022/12/28 07:23:24;;;;;;;;;;;;;;;6.52;100.00;100686.09;5031689;28;19928;-77
2022/12/28 07:25:50;;;;;;;;;;;;;;;6.59;100.00;100705.19;5080286;28;19928;-77
2022/12/28 07:28:15;;;;;;;;;;;;;;;6.63;100.00;100689.25;5078742;28;19935;-77
2022/12/28 07:30:40;;;;;;;;;;;;;;;6.67;100.00;100695.28;5075827;28;21984;-77
2022/12/28 07:33:05;;;;;;;;;;;;;;;6.73;100.00;100694.22;5077605;28;20017;-77
2022/12/28 07:35:31;;;;;;;;;;;;;;;6.77;100.00;100674.81;5078320;28;21381;-77
2022/12/28 07:37:56;;;;;;;;;;;;;;;6.79;100.00;100707.19;5078146;28;19924;-77
2022/12/28 07:40:22;;;;;;;;;;;;;;;6.81;100.00;100699.25;5076328;28;19934;-78
2022/12/28 07:42:47;;;;;;;;;;;;;;;6.83;100.00;100710.56;5081054;28;19923;-77
2022/12/28 07:45:13;;;;;;;;;;;;;;;6.83;100.00;100700.94;5062166;28;19931;-77
2022/12/28 07:47:38;;;;;;;;;;;;;;;6.84;100.00;100707.91;5081705;28;20497;-77
2022/12/28 07:50:03;;;;;;;;;;;;;;;6.85;100.00;100688.56;5078857;28;19928;-78
2022/12/28 07:52:29;;;;;;;;;;;;;;;6.86;100.00;100713.97;5081262;28;19959;-77
2022/12/28 07:54:54;;;;;;;;;;;;;;;6.86;100.00;100702.59;5084135;27;19967;-77
2022/12/28 07:57:20;;;;;;;;;;;;;;;6.88;100.00;100720.06;5086413;27;19924;-77
2022/12/28 07:59:45;;;;;;;;;;;;;;;6.90;100.00;100715.59;5063185;28;19981;-77
2022/12/28 08:02:10;;;;;;;;;;;;;;;6.93;100.00;100712.88;5085437;28;20382;-77
2022/12/28 08:04:36;;;;;;;;;;;;;;;6.95;100.00;100725.97;5068737;28;19935;-77
2022/12/28 08:07:01;;;;;;;;;;;;;;;6.96;100.00;100716.31;5087713;28;19973;-77
2022/12/28 08:09:27;;;;;;;;;;;;;;;6.93;100.00;100720.75;5087799;28;20516;-77
2022/12/28 08:11:52;;;;;;;;;;;;;;;6.89;100.00;100713.91;5085253;28;20483;-77
2022/12/28 08:14:17;;;;;;;;;;;;;;;6.85;100.00;100721.91;5083500;28;19928;-77
2022/12/28 08:16:43;;;;;;;;;;;;;;;6.81;100.00;100713.25;5081989;28;19993;-77
2022/12/28 08:19:09;;;;;;;;;;;;;;;6.79;100.00;100715.06;5079528;28;20280;-77
2022/12/28 08:21:38;;;;;;;;;;;;;;;6.78;100.00;100716.00;5063267;28;19931;-77
2022/12/28 08:24:05;;;;;;;;;;;;;;;6.83;100.00;100708.81;5059892;28;20457;-77
2022/12/28 08:26:31;;;;;;;;;;;;;;;6.89;100.00;100715.66;5079179;28;19935;-77
2022/12/28 08:28:57;;;;;;;;;;;;;;;6.90;100.00;100712.97;5079171;28;19931;-79
2022/12/28 08:31:24;;;;;;;;;;;;;;;6.93;100.00;100706.75;5019904;28;19932;-78
2022/12/28 08:33:49;;;;;;;;;;;;;;;6.95;100.00;100698.78;5046508;28;20986;-78
2022/12/28 08:36:15;;;;;;;;;;;;;;;6.98;100.00;100706.59;5045262;28;20007;-79
2022/12/28 08:38:40;;;;;;;;;;;;;;;6.98;100.00;100703.97;5076441;28;19927;-79
2022/12/28 08:41:07;;;;;;;;;;;;;;;6.99;100.00;100713.59;5057946;28;19924;-81
2022/12/28 08:43:32;;;;;;;;;;;;;;;6.97;100.00;100708.34;5058891;28;19929;-80
2022/12/28 08:46:02;;;;;;;;;;;;;;;6.92;100.00;100716.41;5078134;28;19928;-80
2022/12/28 08:48:28;;;;;;;;;;;;;;;6.86;100.00;100719.25;5074954;28;19923;-80
2022/12/28 08:50:53;;;;;;;;;;;;;;;6.82;100.00;100711.50;5043206;28;20360;-80
2022/12/28 08:53:20;;;;;;;;;;;;;;;6.79;100.00;100715.06;5056605;28;19931;-80
2022/12/28 08:55:46;;;;;;;;;;;;;;;6.80;100.00;100706.28;5053051;28;19927;-80
2022/12/28 08:58:11;;;;;;;;;;;;;;;6.85;100.00;100704.38;5071733;28;20418;-80
2022/12/28 09:00:37;;;;;;;;;;;;;;;6.93;100.00;100717.28;5070736;28;20315;-80
2022/12/28 09:03:02;;;;;;;;;;;;;;;7.00;100.00;100712.66;5068051;28;19939;-80
2022/12/28 09:05:28;;;;;;;;;;;;;;;7.03;100.00;100709.94;5075330;28;19990;-82
2022/12/28 09:07:53;;;;;;;;;;;;;;;7.05;100.00;100711.63;5043997;28;20431;-81
2022/12/28 09:10:19;;;;;;;;;;;;;;;7.05;100.00;100702.84;5058588;28;20463;-81
2022/12/28 09:12:44;;;;;;;;;;;;;;;7.07;100.00;100719.44;5072232;28;19953;-79
2022/12/28 09:15:10;;;;;;;;;;;;;;;7.09;100.00;100715.03;5069498;28;20673;-79
2022/12/28 09:17:35;;;;;;;;;;;;;;;7.10;100.00;100716.72;5048213;28;19932;-78
2022/12/28 09:20:01;;;;;;;;;;;;;;;7.11;100.00;100721.09;5061633;28;19932;-79
2022/12/28 09:22:26;;;;;;;;;;;;;;;7.12;100.00;100722.81;5061067;28;20021;-78
2022/12/28 09:24:51;;;;;;;;;;;;;;;7.14;100.00;100730.66;5077066;28;19928;-79
2022/12/28 09:27:17;;;;;;;;;;;;;;;7.18;100.00;100725.22;5076665;28;20005;-78
2022/12/28 09:29:42;;;;;;;;;;;;;;;7.25;100.00;100727.66;5074140;28;20278;-78
2022/12/28 09:32:07;;;;;;;;;;;;;;;7.28;100.00;100728.41;5074071;28;19938;-80
2022/12/28 09:34:34;;;;;;;;;;;;;;;7.30;100.00;100731.84;5065022;28;19935;-79
2022/12/28 09:37:00;;;;;;;;;;;;;;;7.33;100.00;100726.50;5056636;28;19971;-79
2022/12/28 09:39:25;;;;;;;;;;;;;;;7.33;100.00;100723.88;5076752;28;19924;-80
2022/12/28 09:41:58;;;;;;;;;;;;;;;7.34;100.00;100722.06;5063795;28;20707;-79
2022/12/28 09:44:42;;;;;;;;;;;;;;;7.34;100.00;100727.34;5059821;28;20037;-79
2022/12/28 09:47:16;;;;;;;;;;;;;;;7.32;100.00;100727.38;5053587;28;19939;-79
2022/12/28 09:49:41;;;;;;;;;;;;;;;7.33;100.00;100728.25;5058675;28;19924;-79
2022/12/28 09:52:13;;;;;;;;;;;;;;;7.31;100.00;100727.47;5060051;28;19939;-80
2022/12/28 09:54:39;;;;;;;;;;;;;;;7.29;100.00;100724.00;5077239;28;20081;-80
2022/12/28 09:57:06;;;;;;;;;;;;;;;7.28;100.00;100730.19;5051968;28;19928;-79
2022/12/28 09:59:31;;;;;;;;;;;;;;;7.22;100.00;100720.72;5054879;28;20454;-79
2022/12/28 10:01:58;;;;;;;;;;;;;;;7.17;100.00;100728.78;5041687;28;19932;-78
2022/12/28 10:04:23;;;;;;;;;;;;;;;7.14;100.00;100720.97;5037225;28;19936;-78
2022/12/28 10:06:48;;;;;;;;;;;;;;;7.11;100.00;100723.72;5035682;28;19928;-78
2022/12/28 10:09:24;;;;;;;;;;;;;;;7.09;100.00;100724.69;5055815;28;20536;-78
2022/12/28 10:11:50;;;;;;;;;;;;;;;7.06;100.00;100723.00;5046820;28;19935;-78
2022/12/28 10:14:17;;;;;;;;;;;;;;;7.04;100.00;100730.94;5050977;28;19928;-79
2022/12/28 10:16:42;;;;;;;;;;;;;;;7.05;100.00;100721.28;5044034;28;19950;-77
2022/12/28 10:19:07;;;;;;;;;;;;;;;7.04;100.00;100716.94;5048638;28;20380;-77
2022/12/28 10:21:33;;;;;;;;;;;;;;;7.03;100.00;100723.13;5052674;28;19955;-80
2022/12/28 10:23:59;;;;;;;;;;;;;;;7.02;100.00;100721.38;5049043;28;19981;-80
2022/12/28 10:26:24;;;;;;;;;;;;;;;6.99;100.00;100717.09;5049994;28;20426;-80
2022/12/28 10:28:53;;;;;;;;;;;;;;;6.97;100.00;100718.03;5053328;28;19924;-80
2022/12/28 10:31:31;;;;;;;;;;;;;;;6.92;100.00;100711.16;5053142;28;19950;-80
2022/12/28 10:33:56;;;;;;;;;;;;;;;6.89;100.00;100708.63;5048919;28;20401;-81
2022/12/28 10:36:22;;;;;;;;;;;;;;;6.86;100.00;100706.06;5056468;28;19940;-81
2022/12/28 10:38:49;;;;;;;;;;;;;;;6.83;100.00;100698.28;5052494;28;19963;-80
2022/12/28 10:41:15;;;;;;;;;;;;;;;6.81;100.00;100694.84;5053486;28;19935;-80
2022/12/28 10:43:43;;;;;;;;;;;;;;;6.81;100.00;100697.47;5053785;28;19964;-81
2022/12/28 10:46:19;;;;;;;;;;;;;;;6.80;100.00;100682.59;5048792;28;20024;-80
2022/12/28 10:48:45;;;;;;;;;;;;;;;6.79;100.00;100694.03;5051567;28;20016;-81
2022/12/28 10:51:14;;;;;;;;;;;;;;;6.77;100.00;100686.19;5051658;28;21666;-80
2022/12/28 10:53:55;;;;;;;;;;;;;;;6.75;100.00;100684.53;5052415;28;19971;-80
2022/12/28 10:56:21;;;;;;;;;;;;;;;6.74;100.00;100686.28;5025218;28;20358;-80
2022/12/28 10:58:47;;;;;;;;;;;;;;;6.73;100.00;100689.84;5056819;28;19916;-80
2022/12/28 11:01:12;;;;;;;;;;;;;;;6.71;100.00;100683.75;5053051;28;20329;-80
2022/12/28 11:03:39;;;;;;;;;;;;;;;6.70;100.00;100676.75;5062389;28;19993;-81
2022/12/28 11:06:12;;;;;;;;;;;;;;;6.69;100.00;100675.03;5037355;28;20658;-81
2022/12/28 11:08:38;;;;;;;;;;;;;;;6.68;100.00;100656.66;5040579;28;19928;-81
2022/12/28 11:11:04;;;;;;;;;;;;;;;6.68;100.00;100654.03;5052457;28;19924;-81
2022/12/28 11:13:29;;;;;;;;;;;;;;;6.69;100.00;100661.03;5058191;28;19939;-81
2022/12/28 11:15:55;;;;;;;;;;;;;;;6.69;100.00;100646.09;5074335;28;19928;-80
2022/12/28 11:18:20;;;;;;;;;;;;;;;6.71;100.00;100651.31;5074291;28;20070;-81
2022/12/28 11:20:48;;;;;;;;;;;;;;;6.72;100.00;100640.75;5070999;28;21472;-81
2022/12/28 11:23:19;;;;;;;;;;;;;;;6.73;100.00;100637.22;5057298;28;19999;-82
2022/12/28 11:25:44;;;;;;;;;;;;;;;6.75;100.00;100634.53;5044580;28;19931;-77
2022/12/28 11:28:15;;;;;;;;;;;;;;;6.76;100.00;100628.34;5048666;28;20475;-79
2022/12/28 11:30:41;;;;;;;;;;;;;;;6.77;100.00;100627.44;5049477;28;20629;-80
2022/12/28 11:33:08;;;;;;;;;;;;;;;6.79;100.00;100631.75;5048223;28;19928;-79
2022/12/28 11:35:35;;;;;;;;;;;;;;;6.80;100.00;100616.81;5070207;28;19935;-79
2022/12/28 11:38:01;;;;;;;;;;;;;;;6.82;100.00;100615.00;5067799;28;19928;-78
2022/12/28 11:40:42;;;;;;;;;;;;;;;6.84;100.00;100613.16;5071149;28;19928;-77
2022/12/28 11:43:28;;;;;;;;;;;;;;;6.86;100.00;100621.03;5066292;28;20450;-78
2022/12/28 11:45:54;;;;;;;;;;;;;;;6.88;100.00;100604.28;5056768;28;20303;-77
2022/12/28 11:48:37;;;;;;;;;;;;;;;6.89;100.00;100599.84;5061425;28;20334;-78
2022/12/28 11:51:03;;;;;;;;;;;;;;;6.90;100.00;100602.44;5066268;28;20287;-79
2022/12/28 11:53:32;;;;;;;;;;;;;;;6.90;100.00;100606.81;5038787;28;19931;-78
2022/12/28 11:56:04;;;;;;;;;;;;;;;6.90;100.00;100599.81;5069511;28;20187;-78
2022/12/28 11:58:29;;;;;;;;;;;;;;;6.90;100.00;100594.53;5071449;28;19931;-78
2022/12/28 12:00:55;;;;;;;;;;;;;;;6.88;100.00;100584.97;5071669;28;19928;-78
2022/12/28 12:03:41;;;;;;;;;;;;;;;6.86;100.00;100594.69;5048180;28;19934;-78
2022/12/28 12:06:07;;;;;;;;;;;;;;;6.85;100.00;100583.31;5068795;28;19938;-77
2022/12/28 12:08:32;;;;;;;;;;;;;;;6.83;100.00;100590.41;5031026;28;21667;-78
2022/12/28 12:11:17;;;;;;;;;;;;;;;6.84;100.00;100589.47;5071683;28;19935;-78
2022/12/28 12:13:43;;;;;;;;;;;;;;;6.84;100.00;100585.97;5063141;28;20666;-77
2022/12/28 12:16:37;;;;;;;;;;;;;;;6.83;100.00;100576.38;5052507;28;20013;-78
2022/12/28 12:19:05;;;;;;;;;;;;;;;6.82;100.00;100575.53;5024927;28;19928;-77
2022/12/28 12:21:38;;;;;;;;;;;;;;;6.82;100.00;100578.16;5034565;28;19935;-77
2022/12/28 12:24:09;;;;;;;;;;;;;;;6.81;100.00;100558.00;5066323;28;20406;-78
2022/12/28 12:26:45;;;;;;;;;;;;;;;6.81;100.00;100568.53;5049379;28;21830;-77
2022/12/28 12:29:14;;;;;;;;;;;;;;;6.79;100.00;100560.69;5077162;28;19966;-77
2022/12/28 12:31:41;;;;;;;;;;;;;;;6.79;100.00;100562.47;5042035;28;19955;-77
2022/12/28 12:34:14;;;;;;;;;;;;;;;6.78;100.00;100561.63;5036434;28;19927;-77
2022/12/28 12:36:53;;;;;;;;;;;;;;;6.79;100.00;100562.47;5053341;28;20564;-77
2022/12/28 12:39:27;;;;;;;;;;;;;;;6.78;100.00;100560.75;5055931;28;20521;-78
2022/12/28 12:42:02;;;;;;;;;;;;;;;6.78;100.00;100561.63;5069802;28;20538;-77
2022/12/28 12:44:45;;;;;;;;;;;;;;;6.77;100.00;100536.19;5042666;28;20705;-77
2022/12/28 12:47:14;;;;;;;;;;;;;;;6.79;100.00;100549.31;5072235;28;20440;-77
2022/12/28 12:49:42;;;;;;;;;;;;;;;6.79;100.00;100536.16;5077703;28;20437;-77
2022/12/28 12:52:21;;;;;;;;;;;;;;;6.79;100.00;100541.41;5063979;28;20104;-77
2022/12/28 12:54:46;;;;;;;;;;;;;;;6.79;100.00;100533.50;5078516;27;20088;-77
2022/12/28 12:57:12;;;;;;;;;;;;;;;6.79;100.00;100530.88;5079280;28;20478;-77
2022/12/28 12:59:40;;;;;;;;;;;;;;;6.78;100.00;100529.16;5057258;28;19932;-78